Roper, NC

7:58 AM EDT on August 31, 2015 (GMT -0400)
Northeastern Regional | | Change Station
CLOSE
Current Station
Airport
Location: Edenton,
Elevation: 20 ft
Nearby Weather Stations

Elev 20 ft 36.03 °N, 76.57 °W | Updated 43 minutes ago

Overcast
Overcast
72 °F
Feels Like 72 °F
N
0
Wind Variable Wind from North

Today
High -- | Low -- °F
--% Chance of Precip.
Yesterday
High -- | Low -- °F
Precip. -- in
6:37 AM 7:35 PM
Waning Gibbous, 96% visible
Pressure 30.13 in
Visibility 7.0 miles
Clouds Mostly Cloudy 5000 ft
Overcast 8000 ft
Dew Point 69 °F
Humidity 91%
Rainfall 0.00 in
Snow Depth Not available.
UV 0 out of 12
Pollen 8.40 out of 12
Air Quality Not available.
Flu Activity Not available.
METAR KEDE 311115Z AUTO 00000KT 7SM BKN050 OVC080 22/21 A3013 RMK AO2 T02220206
Pressure 30.13 in
Visibility 7.0 miles
Clouds Mostly Cloudy 5000 ft
Overcast 8000 ft
Dew Point 69 °F
Humidity 91%
Rainfall 0.00 in
Snow Depth Not available.
UV 0 out of 12
Pollen 8.40 out of 12
Air Quality Not available.
Flu Activity Not available.
METAR KEDE 311115Z AUTO 00000KT 7SM BKN050 OVC080 22/21 A3013 RMK AO2 T02220206

10-Day Weather Forecast

×

Almanac

Astronomy

Aug. 31, 2015 Rise Set
Actual Time
Civil Twilight
Nautical Twilight
Astronomical Twilight
Moon
Length of Visible Light
Length of Day
Tomorrow will be .
, % of the Moon is Illuminated

Today's Extremes

State Highs State Lows

Community

WunderPhotos

Upload Photos

1,851,219 photos uploaded!

WunderBlogs® & News

Nearby

Air Quality

  Air Quality AQ Index Pollutant
Not available.

Snow Depth

Station Depth Elevation

Earthquake Activity

City Distance Mag. Time & Date
Minimum magnitude displayed is 2.5.

Coastal Water Temperatures

Place Temperature

Stations

Nearby Weather Stations

Station Location Temp. Windchill Dew Point Humidity Wind Precip. Elev Updated Type